createdAt,value
2024-04-18T00:01:40.091Z,98990.05
2024-04-18T00:04:11.802Z,98989.45
2024-04-18T00:06:44.041Z,98989.59
2024-04-18T00:09:16.252Z,98994.35
2024-04-18T00:11:48.255Z,98991.80
2024-04-18T00:14:19.807Z,98995.79
2024-04-18T00:16:51.562Z,98994.09
2024-04-18T00:19:23.012Z,98990.49
2024-04-18T00:22:02.111Z,98993.54
2024-04-18T00:24:33.884Z,98989.59
2024-04-18T00:27:28.046Z,98985.98
2024-04-18T00:29:59.771Z,98982.75
2024-04-18T00:32:31.691Z,98984.02
2024-04-18T00:35:21.731Z,98984.30
2024-04-18T00:37:53.462Z,98984.88
2024-04-18T00:40:45.710Z,98985.51
2024-04-18T00:43:24.210Z,98986.07
2024-04-18T00:45:59.768Z,98991.80
2024-04-18T00:48:31.700Z,98991.77
2024-04-18T00:51:05.294Z,98995.13
2024-04-18T00:53:37.024Z,98996.78
2024-04-18T00:56:38.606Z,98997.77
2024-04-18T00:59:29.695Z,98998.95
2024-04-18T01:02:21.956Z,98999.95
2024-04-18T01:05:14.569Z,99000.19
2024-04-18T01:07:49.145Z,99003.40
2024-04-18T01:10:26.426Z,99000.94
2024-04-18T01:13:02.270Z,99003.82
2024-04-18T01:15:52.399Z,99006.23
2024-04-18T01:18:25.428Z,99005.02
2024-04-18T01:21:17.288Z,99009.02
2024-04-18T01:23:48.973Z,99008.66
2024-04-18T01:26:22.926Z,99008.48
2024-04-18T01:28:54.648Z,99008.81
2024-04-18T01:31:36.880Z,99006.69
2024-04-18T01:34:08.705Z,99009.27
2024-04-18T01:36:40.281Z,99003.22
2024-04-18T01:39:31.744Z,99004.14
2024-04-18T01:42:12.400Z,99008.14
2024-04-18T01:44:47.912Z,99008.95
2024-04-18T01:47:38.115Z,99009.83
2024-04-18T01:50:12.691Z,99009.43
2024-04-18T01:52:44.390Z,99011.56
2024-04-18T01:55:16.930Z,99013.96
2024-04-18T01:57:48.638Z,99014.88
2024-04-18T02:00:37.869Z,99019.79
2024-04-18T02:03:09.399Z,99020.59
2024-04-18T02:05:47.508Z,99020.73
2024-04-18T02:08:19.128Z,99019.77
2024-04-18T02:10:52.117Z,99019.30
2024-04-18T02:13:42.320Z,99020.23
2024-04-18T02:16:13.907Z,99026.20
2024-04-18T02:18:51.730Z,99021.88
2024-04-18T02:21:23.442Z,99025.77
2024-04-18T02:23:57.739Z,99025.46
2024-04-18T02:26:29.432Z,99024.72
2024-04-18T02:29:01.237Z,99027.94
2024-04-18T02:31:33.089Z,99027.30
2024-04-18T02:34:05.195Z,99031.45
2024-04-18T02:36:52.319Z,99034.59
2024-04-18T02:39:23.979Z,99035.16
2024-04-18T02:41:55.495Z,99040.21
2024-04-18T02:44:53.264Z,99040.59
2024-04-18T02:47:24.764Z,99043.28
2024-04-18T02:50:10.088Z,99040.60
2024-04-18T02:52:41.746Z,99041.35
2024-04-18T02:55:23.287Z,99041.03
2024-04-18T02:58:00.996Z,99041.02
2024-04-18T03:00:32.655Z,99043.62
2024-04-18T03:03:13.047Z,99048.93
2024-04-18T03:06:13.781Z,99044.96
2024-04-18T03:08:46.825Z,99041.55
2024-04-18T03:11:21.670Z,99042.96
2024-04-18T03:14:12.119Z,99038.45
2024-04-18T03:16:43.735Z,99033.39
2024-04-18T03:19:24.616Z,99033.17
2024-04-18T03:21:59.022Z,99034.39
2024-04-18T03:24:30.831Z,99037.04
2024-04-18T03:27:02.882Z,99041.33
2024-04-18T03:29:35.189Z,99044.19
2024-04-18T03:32:07.945Z,99045.69
2024-04-18T03:34:51.153Z,99051.05
2024-04-18T03:37:22.781Z,99046.04
2024-04-18T03:39:54.469Z,99047.70
2024-04-18T03:42:26.082Z,99052.48
2024-04-18T03:44:58.280Z,99049.91
2024-04-18T03:47:29.992Z,99051.05
2024-04-18T03:50:14.058Z,99052.09
2024-04-18T03:52:45.897Z,99057.50
2024-04-18T03:55:36.099Z,99055.09
2024-04-18T03:58:07.856Z,99054.02
2024-04-18T04:00:54.322Z,99055.55
2024-04-18T04:03:26.152Z,99057.61
2024-04-18T04:05:57.821Z,99055.90
2024-04-18T04:08:29.497Z,99059.07
2024-04-18T04:11:33.014Z,99058.41
2024-04-18T04:14:06.453Z,99064.35
2024-04-18T04:16:57.788Z,99064.12
2024-04-18T04:19:29.528Z,99066.64
2024-04-18T04:22:01.682Z,99068.93
2024-04-18T04:24:33.531Z,99073.14
2024-04-18T04:27:25.243Z,99075.69
2024-04-18T04:29:56.927Z,99079.86
2024-04-18T04:32:28.577Z,99081.65
2024-04-18T04:35:00.264Z,99084.11
2024-04-18T04:37:31.825Z,99083.90
2024-04-18T04:40:03.482Z,99089.63
2024-04-18T04:42:36.482Z,99093.70
2024-04-18T04:45:08.889Z,99094.52
2024-04-18T04:47:40.486Z,99098.36
2024-04-18T04:50:41.825Z,99102.77
2024-04-18T04:53:18.909Z,99106.55
2024-04-18T04:56:05.785Z,99108.54
2024-04-18T04:58:37.736Z,99107.38
2024-04-18T05:01:09.517Z,99109.64
2024-04-18T05:03:41.567Z,99113.83
2024-04-18T05:06:28.951Z,99118.77
2024-04-18T05:09:21.534Z,99120.96
2024-04-18T05:11:53.267Z,99120.42
2024-04-18T05:14:40.178Z,99122.51
2024-04-18T05:17:37.396Z,99124.91
2024-04-18T05:20:17.982Z,99125.08
2024-04-18T05:22:50.040Z,99125.05
2024-04-18T05:25:21.623Z,99130.15
2024-04-18T05:28:05.520Z,99129.85
2024-04-18T05:30:58.781Z,99136.40
2024-04-18T05:33:30.780Z,99137.16
2024-04-18T05:36:03.229Z,99138.25
2024-04-18T05:38:34.942Z,99143.48
2024-04-18T05:41:07.024Z,99141.94
2024-04-18T05:43:54.040Z,99144.23
2024-04-18T05:46:25.708Z,99144.98
2024-04-18T05:48:57.747Z,99146.03
2024-04-18T05:51:29.774Z,99146.73
2024-04-18T05:54:21.628Z,99142.45
2024-04-18T05:57:11.405Z,99147.27
2024-04-18T05:59:55.471Z,99145.70
2024-04-18T06:02:27.513Z,99149.27
2024-04-18T06:04:59.114Z,99148.84
2024-04-18T06:07:49.350Z,99145.27
2024-04-18T06:10:20.950Z,99145.09
2024-04-18T06:12:52.745Z,99145.59
2024-04-18T06:15:24.658Z,99147.52
2024-04-18T06:17:56.475Z,99151.40
2024-04-18T06:20:28.454Z,99151.81
2024-04-18T06:23:00.243Z,99145.98
2024-04-18T06:25:32.351Z,99147.94
2024-04-18T06:28:04.319Z,99146.46
2024-04-18T06:30:36.080Z,99147.98
2024-04-18T06:33:08.210Z,99150.17
2024-04-18T06:35:39.775Z,99159.54
2024-04-18T06:38:11.436Z,99166.17
2024-04-18T06:40:44.081Z,99163.64
2024-04-18T06:43:15.949Z,99159.60
2024-04-18T06:45:48.273Z,99166.04
2024-04-18T06:48:20.018Z,99174.17
2024-04-18T06:50:52.171Z,99175.13
2024-04-18T06:53:23.936Z,99173.42
2024-04-18T06:55:56.562Z,99176.70
2024-04-18T06:58:28.325Z,99179.10
2024-04-18T07:01:00.771Z,99177.33
2024-04-18T07:03:33.265Z,99183.72
2024-04-18T07:06:06.178Z,99185.00
2024-04-18T07:08:37.958Z,99188.50
2024-04-18T07:11:10.665Z,99192.72
2024-04-18T07:13:42.306Z,99195.75
2024-04-18T07:16:32.636Z,99195.17
2024-04-18T07:19:24.404Z,99196.55
2024-04-18T07:22:00.230Z,99192.11
2024-04-18T07:24:52.009Z,99190.17
2024-04-18T07:27:23.781Z,99196.35
2024-04-18T07:29:55.611Z,99197.90
2024-04-18T07:32:47.286Z,99196.40
2024-04-18T07:35:19.298Z,99197.23
2024-04-18T07:37:52.807Z,99202.38
2024-04-18T07:40:24.959Z,99199.13
2024-04-18T07:42:56.670Z,99201.64
2024-04-18T07:45:29.779Z,99203.99
2024-04-18T07:48:01.508Z,99204.80
2024-04-18T07:50:33.078Z,99208.98
2024-04-18T07:53:09.748Z,99209.96
2024-04-18T07:55:44.316Z,99211.28
2024-04-18T07:58:16.126Z,99210.69
2024-04-18T08:00:53.936Z,99210.23
2024-04-18T08:03:28.682Z,99210.83
2024-04-18T08:08:35.348Z,99216.16
2024-04-18T08:11:39.897Z,99220.63
2024-04-18T08:14:05.176Z,99218.88
2024-04-18T08:16:39.511Z,99215.36
2024-04-18T08:19:11.294Z,99212.93
2024-04-18T08:21:42.959Z,99208.81
2024-04-18T08:24:22.735Z,99209.95
2024-04-18T08:26:54.673Z,99210.45
2024-04-18T08:29:27.970Z,99211.78
2024-04-18T08:31:59.692Z,99215.40
2024-04-18T08:34:35.479Z,99215.03
2024-04-18T08:37:08.370Z,99213.99
2024-04-18T08:39:40.785Z,99214.73
2024-04-18T08:42:14.040Z,99212.91
2024-04-18T08:44:46.055Z,99211.19
2024-04-18T08:47:19.070Z,99204.46
2024-04-18T08:49:53.152Z,99201.63
2024-04-18T08:52:25.417Z,99203.41
2024-04-18T08:54:57.251Z,99201.55
2024-04-18T08:57:31.451Z,99201.31
2024-04-18T09:00:06.528Z,99202.66
2024-04-18T09:02:38.547Z,99199.60
2024-04-18T09:05:11.243Z,99206.83
2024-04-18T09:07:43.150Z,99204.80
2024-04-18T09:10:17.157Z,99207.14
2024-04-18T09:12:49.895Z,99205.54
2024-04-18T09:15:23.901Z,99200.39
2024-04-18T09:18:06.964Z,99198.61
2024-04-18T09:20:40.800Z,99199.25
2024-04-18T09:23:12.303Z,99191.20
2024-04-18T09:25:45.944Z,99188.75
2024-04-18T09:28:22.205Z,99186.48
2024-04-18T09:30:57.344Z,99187.88
2024-04-18T09:33:29.584Z,99186.67
2024-04-18T09:36:02.738Z,99185.52
2024-04-18T09:38:36.241Z,99186.39
2024-04-18T09:41:13.654Z,99181.73
2024-04-18T09:43:53.605Z,99189.58
2024-04-18T09:46:27.461Z,99191.10
2024-04-18T09:49:00.103Z,99188.42
2024-04-18T09:51:32.311Z,99182.95
2024-04-18T09:54:06.182Z,99180.43
2024-04-18T09:56:39.620Z,99183.64
2024-04-18T09:59:13.861Z,99188.21
2024-04-18T10:01:46.062Z,99187.25
2024-04-18T10:04:18.070Z,99191.39
2024-04-18T10:06:51.614Z,99191.89
2024-04-18T10:09:27.145Z,99191.86
2024-04-18T10:11:58.977Z,99194.54
2024-04-18T10:14:31.753Z,99199.23
2024-04-18T10:17:04.652Z,99199.25
2024-04-18T10:19:36.568Z,99193.14
2024-04-18T10:22:24.008Z,99200.71
2024-04-18T10:25:17.863Z,99198.89
2024-04-18T10:27:50.080Z,99195.92
2024-04-18T10:30:27.593Z,99196.09
2024-04-18T10:32:59.425Z,99193.89
2024-04-18T10:35:32.847Z,99195.88
2024-04-18T10:38:05.002Z,99190.52
2024-04-18T10:40:37.061Z,99186.76
2024-04-18T10:43:17.530Z,99184.19
2024-04-18T10:45:52.386Z,99180.36
2024-04-18T10:48:24.886Z,99178.01
2024-04-18T10:50:56.725Z,99176.50
2024-04-18T10:53:29.703Z,99170.72
2024-04-18T10:56:02.159Z,99167.84
2024-04-18T10:58:33.876Z,99171.86
2024-04-18T11:01:06.110Z,99173.35
2024-04-18T11:03:38.021Z,99170.71
2024-04-18T11:06:10.366Z,99169.52
2024-04-18T11:08:42.047Z,99167.61
2024-04-18T11:11:16.738Z,99168.57
2024-04-18T11:13:50.632Z,99171.45
2024-04-18T11:16:22.597Z,99173.21
2024-04-18T11:18:54.371Z,99175.31
2024-04-18T11:21:27.617Z,99177.73
2024-04-18T11:23:59.895Z,99177.95
2024-04-18T11:26:33.540Z,99182.08
2024-04-18T11:29:05.229Z,99196.34
2024-04-18T11:31:38.217Z,99201.08
2024-04-18T11:34:10.206Z,99202.73
2024-04-18T11:36:43.111Z,99209.65
2024-04-18T11:39:15.678Z,99221.85
2024-04-18T11:41:47.569Z,99226.77
2024-04-18T11:44:19.242Z,99224.82
2024-04-18T11:46:53.202Z,99229.84
2024-04-18T11:49:24.984Z,99232.54
2024-04-18T11:51:57.878Z,99230.25
2024-04-18T11:54:29.729Z,99235.11
2024-04-18T11:57:01.339Z,99244.83
2024-04-18T11:59:41.288Z,99243.31
2024-04-18T12:02:13.250Z,99244.33
2024-04-18T12:04:57.083Z,99236.70
2024-04-18T12:07:28.992Z,99237.52
2024-04-18T12:10:00.883Z,99247.14
2024-04-18T12:12:33.417Z,99245.66
2024-04-18T12:15:25.124Z,99249.21
2024-04-18T12:17:56.690Z,99248.79
2024-04-18T12:20:28.561Z,99255.69
2024-04-18T12:23:00.475Z,99255.39
2024-04-18T12:25:32.257Z,99253.40
2024-04-18T12:28:04.051Z,99254.72
2024-04-18T12:30:36.226Z,99250.52
2024-04-18T12:33:24.044Z,99257.04
2024-04-18T12:35:56.179Z,99251.70
2024-04-18T12:38:27.960Z,99250.64
2024-04-18T12:41:06.292Z,99250.23
2024-04-18T12:43:38.481Z,99249.61
2024-04-18T12:46:29.516Z,99248.73
2024-04-18T12:49:01.779Z,99255.48
2024-04-18T12:51:35.884Z,99258.13
2024-04-18T12:54:07.980Z,99258.52
2024-04-18T12:56:52.082Z,99262.39
2024-04-18T12:59:26.868Z,99264.56
2024-04-18T13:01:58.567Z,99265.20
2024-04-18T13:04:32.751Z,99267.52
2024-04-18T13:07:05.239Z,99269.77
2024-04-18T13:09:37.417Z,99271.56
2024-04-18T13:12:09.715Z,99267.23
2024-04-18T13:15:00.556Z,99256.52
2024-04-18T13:17:32.354Z,99256.21
2024-04-18T13:20:04.826Z,99252.46
2024-04-18T13:22:36.831Z,99243.91
2024-04-18T13:25:09.335Z,99241.36
2024-04-18T13:27:44.676Z,99243.84
2024-04-18T13:30:36.530Z,99242.55
2024-04-18T13:33:08.634Z,99246.25
2024-04-18T13:35:40.551Z,99243.80
2024-04-18T13:38:12.370Z,99250.02
2024-04-18T13:40:57.904Z,99255.02
2024-04-18T13:43:37.523Z,99265.18
2024-04-18T13:46:12.166Z,99271.04
2024-04-18T13:49:04.356Z,99277.95
2024-04-18T13:51:36.148Z,99283.17
2024-04-18T13:54:27.814Z,99283.77
2024-04-18T13:56:59.518Z,99282.65
2024-04-18T13:59:50.650Z,99279.21
2024-04-18T14:02:41.089Z,99268.64
2024-04-18T14:05:21.659Z,99254.94
2024-04-18T14:08:09.134Z,99259.10
2024-04-18T14:10:40.588Z,99257.69
2024-04-18T14:13:30.868Z,99255.66
2024-04-18T14:16:20.737Z,99249.86
2024-04-18T14:18:59.037Z,99253.42
2024-04-18T14:21:39.981Z,99252.20
2024-04-18T14:24:12.081Z,99245.90
2024-04-18T14:27:02.000Z,99244.40
2024-04-18T14:29:34.058Z,99243.69
2024-04-18T14:32:06.489Z,99246.34
2024-04-18T14:34:57.234Z,99244.92
2024-04-18T14:37:29.527Z,99243.82
2024-04-18T14:40:01.476Z,99240.37
2024-04-18T14:42:33.235Z,99242.30
2024-04-18T14:45:05.595Z,99252.43
2024-04-18T14:47:37.307Z,99258.43
2024-04-18T14:50:10.089Z,99262.79
2024-04-18T14:52:41.777Z,99266.64
2024-04-18T14:55:32.231Z,99266.61
2024-04-18T14:58:06.974Z,99284.70
2024-04-18T15:00:55.097Z,99308.45
2024-04-18T15:03:27.443Z,99319.20
2024-04-18T15:06:19.454Z,99320.45
2024-04-18T15:09:11.550Z,99313.61
2024-04-18T15:12:00.415Z,99313.77
2024-04-18T15:14:44.309Z,99314.95
2024-04-18T15:17:16.356Z,99308.89
2024-04-18T15:19:48.100Z,99303.12
2024-04-18T15:22:39.273Z,99299.99
2024-04-18T15:25:29.057Z,99292.84
2024-04-18T15:28:00.773Z,99288.36
2024-04-18T15:30:32.590Z,99288.81
2024-04-18T15:33:23.054Z,99282.01
2024-04-18T15:35:55.340Z,99280.89
2024-04-18T15:38:26.937Z,99279.03
2024-04-18T15:41:17.079Z,99284.00
2024-04-18T15:43:48.811Z,99288.27
2024-04-18T15:46:38.978Z,99289.23
2024-04-18T15:49:15.397Z,99291.16
2024-04-18T15:51:50.498Z,99296.77
2024-04-18T15:54:22.182Z,99301.62
2024-04-18T15:56:53.835Z,99300.48
2024-04-18T15:59:45.766Z,99300.90
2024-04-18T16:02:17.319Z,99300.98
2024-04-18T16:04:49.301Z,99296.54
2024-04-18T16:07:20.997Z,99300.10
2024-04-18T16:10:18.571Z,99297.51
2024-04-18T16:12:59.349Z,99302.97
2024-04-18T16:15:31.887Z,99314.73
2024-04-18T16:18:07.705Z,99314.83
2024-04-18T16:20:58.652Z,99318.84
2024-04-18T16:23:43.694Z,99323.22
2024-04-18T16:26:15.562Z,99321.08
2024-04-18T16:28:47.057Z,99324.48
2024-04-18T16:31:18.730Z,99327.73
2024-04-18T16:33:50.262Z,99330.84
2024-04-18T16:36:32.082Z,99329.55
2024-04-18T16:39:12.959Z,99335.89
2024-04-18T16:41:46.004Z,99352.17
2024-04-18T16:44:18.935Z,99361.80
2024-04-18T16:46:50.679Z,99357.55
2024-04-18T16:49:22.481Z,99356.18
2024-04-18T16:51:54.318Z,99361.27
2024-04-18T16:54:31.488Z,99370.61
2024-04-18T16:57:06.267Z,99374.73
2024-04-18T16:59:50.405Z,99374.96
2024-04-18T17:02:22.164Z,99379.98
2024-04-18T17:04:54.111Z,99383.41
2024-04-18T17:07:25.585Z,99385.43
2024-04-18T17:10:16.242Z,99390.23
2024-04-18T17:13:07.009Z,99394.23
2024-04-18T17:16:05.805Z,99395.65
2024-04-18T17:18:37.754Z,99392.14
2024-04-18T17:21:09.495Z,99393.62
2024-04-18T17:23:41.477Z,99395.83
2024-04-18T17:26:13.673Z,99399.33
2024-04-18T17:28:46.472Z,99407.45
2024-04-18T17:31:39.069Z,99407.77
2024-04-18T17:34:10.480Z,99415.84
2024-04-18T17:36:48.303Z,99416.97
2024-04-18T17:39:40.117Z,99420.80
2024-04-18T17:42:11.841Z,99427.41
2024-04-18T17:45:01.588Z,99432.93
2024-04-18T17:47:36.133Z,99434.69
2024-04-18T17:50:09.371Z,99433.08
2024-04-18T17:52:45.340Z,99434.52
2024-04-18T17:55:17.577Z,99435.98
2024-04-18T17:57:49.243Z,99442.38
2024-04-18T18:00:26.949Z,99443.23
2024-04-18T18:02:58.910Z,99445.05
2024-04-18T18:05:43.516Z,99451.23
2024-04-18T18:08:33.606Z,99452.38
2024-04-18T18:11:23.926Z,99457.91
2024-04-18T18:13:58.455Z,99457.23
2024-04-18T18:16:31.758Z,99457.27
2024-04-18T18:19:03.582Z,99457.54
2024-04-18T18:21:41.273Z,99461.45
2024-04-18T18:24:15.917Z,99459.96
2024-04-18T18:26:47.642Z,99464.15
2024-04-18T18:29:19.484Z,99468.73
2024-04-18T18:32:14.305Z,99473.89
2024-04-18T18:34:48.110Z,99478.00
2024-04-18T18:37:20.243Z,99479.95
2024-04-18T18:40:13.457Z,99486.99
2024-04-18T18:42:46.025Z,99486.11
2024-04-18T18:45:17.839Z,99489.27
2024-04-18T18:47:49.828Z,99486.40
2024-04-18T18:50:24.970Z,99494.27
2024-04-18T18:52:56.866Z,99490.38
2024-04-18T18:55:46.834Z,99493.71
2024-04-18T18:58:21.089Z,99495.35
2024-04-18T19:00:52.844Z,99499.05
2024-04-18T19:03:24.639Z,99500.63
2024-04-18T19:05:56.238Z,99502.16
2024-04-18T19:08:28.280Z,99500.73
2024-04-18T19:11:02.666Z,99501.09
2024-04-18T19:13:34.390Z,99502.83
2024-04-18T19:16:06.558Z,99504.94
2024-04-18T19:18:38.553Z,99500.60
2024-04-18T19:21:10.441Z,99503.13
2024-04-18T19:23:43.057Z,99510.01
2024-04-18T19:26:14.659Z,99510.48
2024-04-18T19:28:46.301Z,99512.05
2024-04-18T19:31:20.098Z,99514.35
2024-04-18T19:33:51.792Z,99511.69
2024-04-18T19:36:24.079Z,99515.02
2024-04-18T19:38:55.649Z,99516.19
2024-04-18T19:41:30.294Z,99511.77
2024-04-18T19:44:01.923Z,99515.06
2024-04-18T19:46:33.609Z,99516.96
2024-04-18T19:49:14.603Z,99520.63
2024-04-18T19:52:02.627Z,99514.71
2024-04-18T19:54:36.944Z,99514.20
2024-04-18T19:57:09.225Z,99513.52
2024-04-18T19:59:41.534Z,99513.70
2024-04-18T20:02:14.496Z,99514.65
2024-04-18T20:04:46.508Z,99518.21
2024-04-18T20:07:18.280Z,99519.66
2024-04-18T20:09:49.927Z,99519.33
2024-04-18T20:12:21.832Z,99515.71
2024-04-18T20:15:11.948Z,99519.13
2024-04-18T20:17:44.191Z,99516.15
2024-04-18T20:20:16.744Z,99515.80
2024-04-18T20:22:48.700Z,99513.19
2024-04-18T20:25:29.239Z,99514.64
2024-04-18T20:28:00.866Z,99512.56
2024-04-18T20:30:32.663Z,99517.17
2024-04-18T20:33:10.521Z,99517.73
2024-04-18T20:35:42.374Z,99518.95
2024-04-18T20:38:13.788Z,99522.60
2024-04-18T20:40:45.344Z,99528.98
2024-04-18T20:43:16.835Z,99530.07
2024-04-18T20:45:50.068Z,99531.99
2024-04-18T20:48:21.815Z,99534.51
2024-04-18T20:50:53.504Z,99532.63
2024-04-18T20:53:25.147Z,99530.72
2024-04-18T20:55:56.885Z,99529.46
2024-04-18T20:58:28.541Z,99532.48
2024-04-18T21:01:00.777Z,99529.95
2024-04-18T21:03:32.741Z,99527.95
2024-04-18T21:06:04.640Z,99530.50
2024-04-18T21:08:36.617Z,99530.86
2024-04-18T21:11:08.411Z,99534.13
2024-04-18T21:13:40.012Z,99531.89
2024-04-18T21:16:11.771Z,99531.13
2024-04-18T21:18:43.463Z,99531.87
2024-04-18T21:21:15.099Z,99533.91
2024-04-18T21:23:46.763Z,99533.31
2024-04-18T21:26:18.754Z,99535.61
2024-04-18T21:28:51.408Z,99536.25
2024-04-18T21:31:41.423Z,99540.79
2024-04-18T21:34:14.036Z,99540.54
2024-04-18T21:36:45.771Z,99541.46
2024-04-18T21:39:17.500Z,99544.61
2024-04-18T21:41:49.656Z,99543.19
2024-04-18T21:44:21.634Z,99541.83
2024-04-18T21:46:53.202Z,99544.83
2024-04-18T21:49:25.487Z,99541.36
2024-04-18T21:51:57.247Z,99539.59
2024-04-18T21:54:29.262Z,99534.95
2024-04-18T21:57:03.076Z,99536.06
2024-04-18T21:59:36.508Z,99533.59
2024-04-18T22:02:08.522Z,99535.60
2024-04-18T22:04:40.075Z,99531.84
2024-04-18T22:07:11.611Z,99530.34
2024-04-18T22:09:43.301Z,99531.68
2024-04-18T22:12:15.332Z,99530.53
2024-04-18T22:14:47.016Z,99531.85
2024-04-18T22:17:18.452Z,99532.44
2024-04-18T22:19:50.225Z,99533.91
2024-04-18T22:22:22.677Z,99534.19
2024-04-18T22:24:54.308Z,99537.01
2024-04-18T22:27:25.987Z,99535.90
2024-04-18T22:29:57.649Z,99536.73
2024-04-18T22:32:29.574Z,99538.98
2024-04-18T22:35:01.489Z,99538.77
2024-04-18T22:37:39.146Z,99537.13
2024-04-18T22:40:12.061Z,99537.55
2024-04-18T22:42:43.945Z,99538.57
2024-04-18T22:45:15.604Z,99537.14
2024-04-18T22:47:47.690Z,99535.84
2024-04-18T22:50:19.200Z,99540.93
2024-04-18T22:52:50.672Z,99537.51
2024-04-18T22:55:22.462Z,99537.99
2024-04-18T22:57:54.046Z,99538.45
2024-04-18T23:00:25.928Z,99533.30
2024-04-18T23:02:57.699Z,99530.88
2024-04-18T23:05:42.024Z,99532.33
2024-04-18T23:08:13.599Z,99528.49
2024-04-18T23:10:46.043Z,99529.40
2024-04-18T23:13:18.240Z,99523.95
2024-04-18T23:15:49.759Z,99521.23
2024-04-18T23:18:21.621Z,99519.00
2024-04-18T23:20:55.369Z,99514.58
2024-04-18T23:23:37.710Z,99512.60
2024-04-18T23:26:09.185Z,99510.03
2024-04-18T23:28:40.841Z,99509.39
2024-04-18T23:31:12.603Z,99511.00
2024-04-18T23:33:44.407Z,99509.73
2024-04-18T23:36:16.178Z,99509.84
2024-04-18T23:38:47.830Z,99506.12
2024-04-18T23:41:19.425Z,99503.38
2024-04-18T23:43:51.290Z,99501.79
2024-04-18T23:46:22.924Z,99501.21
2024-04-18T23:48:54.673Z,99499.95
2024-04-18T23:51:26.586Z,99500.38
2024-04-18T23:53:58.130Z,99500.45
2024-04-18T23:56:29.731Z,99502.24
2024-04-18T23:59:01.486Z,99500.27
